Terminal Aerodrome Forecast
Issued by NWS Sioux Falls, SD

Home | Current Version | Previous Version | Graphics & Text | Print | Product List | Glossary Off
Versions: 1 2 3 4 5 6 7 8 9 10 11 12 13 14 15 16 17 18

000
FTUS43 KFSD 271730
TAFHON
TAF
KHON 271730Z 2718/2818 32012G18KT P6SM BKN060
     FM272300 28008KT P6SM SCT120
     FM280600 29014KT P6SM OVC035
     FM281200 30018G25KT P6SM OVC030=

USA.gov is the U.S. government's official web portal to all federal, state and local government web resources and services.